Scalby, United Kingdom
Current Conditions -  °F | °C
As of 10:50 PM on Wednesday 26 Nov 2014 (Local Time) from EGXV Reporting Station
Moderate Fog Moderate Fog  
Wind Chill: 46°   Ceiling: 300
Heat Index: 46°   Visibility: 0.37mi
Dew Point: 46°   Wind: 2mph
Humidity: 100%   Direction: 350°N
Pressure: 29.74"   Gusts: NA
Location:  53.77°N, 0.72°W
Report Text: EGXV 262250Z AUTO 35002KT 0600 FG OVC003/// 08/08 Q1007
Loading
Personal Weather Stations






























Interactive Weather Map New forecast layout! Learn more

10-Day Weather Forecast

Advertisements
Track Severe Weather on mobile